createdAt,value
2019-03-11T00:02:21.714Z,76.03
2019-03-11T00:04:54.773Z,76.01
2019-03-11T00:07:26.709Z,76.02
2019-03-11T00:09:58.499Z,76.07
2019-03-11T00:12:30.280Z,75.88
2019-03-11T00:15:02.071Z,75.79
2019-03-11T00:17:34.527Z,75.47
2019-03-11T00:20:06.625Z,75.12
2019-03-11T00:22:38.444Z,75.00
2019-03-11T00:25:10.691Z,74.58
2019-03-11T00:27:42.465Z,73.94
2019-03-11T00:30:14.914Z,73.78
2019-03-11T00:32:46.739Z,73.65
2019-03-11T00:35:18.759Z,73.68
2019-03-11T00:37:50.504Z,73.47
2019-03-11T00:40:22.292Z,73.36
2019-03-11T00:42:54.053Z,73.48
2019-03-11T00:45:25.826Z,73.35
2019-03-11T00:48:02.021Z,73.28
2019-03-11T00:50:31.448Z,73.30
2019-03-11T00:53:03.187Z,73.12
2019-03-11T00:55:34.979Z,73.21
2019-03-11T00:58:06.748Z,73.29
2019-03-11T01:00:39.119Z,73.32
2019-03-11T01:03:10.915Z,72.96
2019-03-11T01:05:42.925Z,73.09
2019-03-11T01:08:14.706Z,73.22
2019-03-11T01:10:46.481Z,73.64
2019-03-11T01:13:18.231Z,74.17
2019-03-11T01:15:50.016Z,74.48
2019-03-11T01:18:21.884Z,74.98
2019-03-11T01:20:54.175Z,74.85
2019-03-11T01:23:25.981Z,74.59
2019-03-11T01:25:57.725Z,74.87
2019-03-11T01:28:29.526Z,75.01
2019-03-11T01:31:01.408Z,74.84
2019-03-11T01:33:33.261Z,75.01
2019-03-11T01:36:05.354Z,75.17
2019-03-11T01:38:37.134Z,75.41
2019-03-11T01:41:08.937Z,75.88
2019-03-11T01:43:40.716Z,75.76
2019-03-11T01:46:12.508Z,75.81
2019-03-11T01:48:44.365Z,75.85
2019-03-11T01:51:16.453Z,75.67
2019-03-11T01:53:48.303Z,75.72
2019-03-11T01:56:20.083Z,76.50
2019-03-11T01:58:52.015Z,76.20
2019-03-11T02:01:23.795Z,76.13
2019-03-11T02:03:55.576Z,76.11
2019-03-11T02:06:27.570Z,76.17
2019-03-11T02:08:59.347Z,76.56
2019-03-11T02:11:31.091Z,76.31
2019-03-11T02:14:02.900Z,76.45
2019-03-11T02:16:34.739Z,76.26
2019-03-11T02:19:06.529Z,76.42
2019-03-11T02:21:38.603Z,76.71
2019-03-11T02:24:10.464Z,76.29
2019-03-11T02:26:42.294Z,76.78
2019-03-11T02:29:14.064Z,76.87
2019-03-11T02:31:45.876Z,76.94
2019-03-11T02:34:17.645Z,76.84
2019-03-11T02:36:49.611Z,76.48
2019-03-11T02:39:22.462Z,76.23
2019-03-11T02:41:54.227Z,76.39
2019-03-11T02:44:25.986Z,76.48
2019-03-11T02:46:58.708Z,76.40
2019-03-11T02:49:30.473Z,76.79
2019-03-11T02:52:03.289Z,76.65
2019-03-11T02:54:35.075Z,76.77
2019-03-11T02:57:06.850Z,76.56
2019-03-11T02:59:38.896Z,76.72
2019-03-11T03:02:41.847Z,76.71
2019-03-11T03:05:20.527Z,76.63
2019-03-11T03:07:52.299Z,76.62
2019-03-11T03:10:24.074Z,76.70
2019-03-11T03:12:55.795Z,76.82
2019-03-11T03:15:27.554Z,76.64
2019-03-11T03:17:59.318Z,76.84
2019-03-11T03:20:31.449Z,77.33
2019-03-11T03:23:03.201Z,77.11
2019-03-11T03:25:35.215Z,77.24
2019-03-11T03:28:07.529Z,77.59
2019-03-11T03:30:39.578Z,77.89
2019-03-11T03:33:11.332Z,77.84
2019-03-11T03:35:43.120Z,77.87
2019-03-11T03:38:28.799Z,77.58
2019-03-11T03:40:48.403Z,78.02
2019-03-11T03:43:20.289Z,77.85
2019-03-11T03:45:52.079Z,78.14
2019-03-11T03:48:23.885Z,77.93
2019-03-11T03:50:55.715Z,78.02
2019-03-11T03:53:27.791Z,78.13
2019-03-11T03:55:59.572Z,78.13
2019-03-11T03:58:31.369Z,78.07
2019-03-11T04:01:03.116Z,78.00
2019-03-11T04:03:34.909Z,78.08
2019-03-11T04:06:06.675Z,78.06
2019-03-11T04:08:38.650Z,78.00
2019-03-11T04:11:10.416Z,78.56
2019-03-11T04:13:42.182Z,78.26
2019-03-11T04:16:15.139Z,78.20
2019-03-11T04:19:12.225Z,78.03
2019-03-11T04:21:44.070Z,78.33
2019-03-11T04:24:16.106Z,77.99
2019-03-11T04:26:54.494Z,78.23
2019-03-11T04:29:26.293Z,78.18
2019-03-11T04:31:58.091Z,78.01
2019-03-11T04:34:29.982Z,78.00
2019-03-11T04:37:01.725Z,78.56
2019-03-11T04:39:33.839Z,78.42
2019-03-11T04:42:05.587Z,78.43
2019-03-11T04:44:38.461Z,78.44
2019-03-11T04:47:10.259Z,78.76
2019-03-11T04:49:42.005Z,78.70
2019-03-11T04:52:14.993Z,78.70
2019-03-11T04:54:48.240Z,78.70
2019-03-11T04:57:20.038Z,78.83
2019-03-11T04:59:51.821Z,78.85
2019-03-11T05:02:23.681Z,78.74
2019-03-11T05:04:55.446Z,78.48
2019-03-11T05:07:27.214Z,78.59
2019-03-11T05:09:59.345Z,78.79
2019-03-11T05:12:31.139Z,78.70
2019-03-11T05:15:02.961Z,78.59
2019-03-11T05:17:35.927Z,78.29
2019-03-11T05:20:08.920Z,78.44
2019-03-11T05:22:40.952Z,78.37
2019-03-11T05:25:13.172Z,78.61
2019-03-11T05:27:45.051Z,78.59
2019-03-11T05:30:17.970Z,78.28
2019-03-11T05:32:50.187Z,78.40
2019-03-11T05:35:21.947Z,78.14
2019-03-11T05:37:53.748Z,77.80
2019-03-11T05:40:25.499Z,77.54
2019-03-11T05:42:57.310Z,77.70
2019-03-11T05:45:29.170Z,77.45
2019-03-11T05:48:00.975Z,77.15
2019-03-11T05:50:33.204Z,76.88
2019-03-11T05:53:05.022Z,76.48
2019-03-11T05:55:36.835Z,76.45
2019-03-11T05:58:08.573Z,76.59
2019-03-11T06:00:40.410Z,76.65
2019-03-11T06:03:12.195Z,76.54
2019-03-11T06:05:44.006Z,76.71
2019-03-11T06:08:25.473Z,76.51
2019-03-11T06:10:57.732Z,76.21
2019-03-11T06:13:36.035Z,76.11
2019-03-11T06:16:03.061Z,75.87
2019-03-11T06:18:52.262Z,75.56
2019-03-11T06:21:44.846Z,75.13
2019-03-11T06:24:16.908Z,74.88
2019-03-11T06:26:48.734Z,74.91
2019-03-11T06:29:30.106Z,75.02
2019-03-11T06:31:54.089Z,74.86
2019-03-11T06:34:25.948Z,75.15
2019-03-11T06:36:57.763Z,75.10
2019-03-11T06:39:30.764Z,74.86
2019-03-11T06:42:02.767Z,74.66
2019-03-11T06:44:34.569Z,74.19
2019-03-11T06:47:06.331Z,74.12
2019-03-11T06:49:38.129Z,73.67
2019-03-11T06:52:09.913Z,73.59
2019-03-11T06:54:42.690Z,73.88
2019-03-11T06:57:15.955Z,72.82
2019-03-11T06:59:47.744Z,72.75
2019-03-11T07:02:19.497Z,71.34
2019-03-11T07:04:51.358Z,70.67
2019-03-11T07:07:23.209Z,70.63
2019-03-11T07:09:55.093Z,70.56
2019-03-11T07:12:26.892Z,70.62
2019-03-11T07:14:58.705Z,69.63
2019-03-11T07:17:30.575Z,69.60
2019-03-11T07:20:02.363Z,68.78
2019-03-11T07:22:34.136Z,66.99
2019-03-11T07:25:06.547Z,66.95
2019-03-11T07:27:38.505Z,66.10
2019-03-11T07:30:11.923Z,66.74
2019-03-11T07:32:43.706Z,66.09
2019-03-11T07:35:15.559Z,64.24
2019-03-11T07:37:47.435Z,64.85
2019-03-11T07:40:29.052Z,62.87
2019-03-11T07:42:53.027Z,63.16
2019-03-11T07:45:24.850Z,63.78
2019-03-11T07:47:56.601Z,63.32
2019-03-11T07:50:28.393Z,61.47
2019-03-11T07:53:00.157Z,62.18
2019-03-11T07:55:31.923Z,61.66
2019-03-11T07:58:03.744Z,62.68
2019-03-11T08:00:35.584Z,60.86
2019-03-11T08:03:07.431Z,60.05
2019-03-11T08:05:39.252Z,59.55
2019-03-11T08:08:11.170Z,58.62
2019-03-11T08:10:43.138Z,57.89
2019-03-11T08:13:15.141Z,58.33
2019-03-11T08:15:46.933Z,57.66
2019-03-11T08:18:18.794Z,57.62
2019-03-11T08:20:50.556Z,57.91
2019-03-11T08:23:22.381Z,58.41
2019-03-11T08:25:54.347Z,59.84
2019-03-11T08:28:26.527Z,57.50
2019-03-11T08:30:58.376Z,55.60
2019-03-11T08:33:30.151Z,55.63
2019-03-11T08:36:02.002Z,54.47
2019-03-11T08:38:34.931Z,51.85
2019-03-11T08:41:06.745Z,52.28
2019-03-11T08:43:38.489Z,52.51
2019-03-11T08:46:10.555Z,53.62
2019-03-11T08:48:42.479Z,51.31
2019-03-11T08:51:14.312Z,50.09
2019-03-11T08:53:46.097Z,48.92
2019-03-11T08:56:17.922Z,47.30
2019-03-11T08:58:49.968Z,48.84
2019-03-11T09:01:21.798Z,48.13
2019-03-11T09:03:53.538Z,49.99
2019-03-11T09:06:25.419Z,49.79
2019-03-11T09:08:57.207Z,51.05
2019-03-11T09:11:28.999Z,47.18
2019-03-11T09:14:00.981Z,47.64
2019-03-11T09:16:32.763Z,48.24
2019-03-11T09:19:04.538Z,46.97
2019-03-11T09:21:36.461Z,47.94
2019-03-11T09:24:18.706Z,46.34
2019-03-11T09:26:41.959Z,47.95
2019-03-11T09:29:14.275Z,47.19
2019-03-11T09:31:46.165Z,46.96
2019-03-11T09:34:17.967Z,45.74
2019-03-11T09:36:49.798Z,44.38
2019-03-11T09:39:21.611Z,45.16
2019-03-11T09:41:53.420Z,45.05
2019-03-11T09:44:25.653Z,44.75
2019-03-11T09:46:57.435Z,43.88
2019-03-11T09:49:29.351Z,45.11
2019-03-11T09:52:01.166Z,45.34
2019-03-11T09:54:32.971Z,44.66
2019-03-11T09:57:06.382Z,44.78
2019-03-11T09:59:38.436Z,44.75
2019-03-11T10:02:12.413Z,45.93
2019-03-11T10:04:44.594Z,44.91
2019-03-11T10:07:16.389Z,44.34
2019-03-11T10:09:48.205Z,43.10
2019-03-11T10:12:19.998Z,42.34
2019-03-11T10:14:52.105Z,41.64
2019-03-11T10:17:24.086Z,43.15
2019-03-11T10:19:55.984Z,45.11
2019-03-11T10:22:27.765Z,41.11
2019-03-11T10:24:59.531Z,41.84
2019-03-11T10:27:31.558Z,41.26
2019-03-11T10:30:04.294Z,42.66
2019-03-11T10:32:36.376Z,42.52
2019-03-11T10:35:30.124Z,42.78
2019-03-11T10:37:43.451Z,43.74
2019-03-11T10:40:18.428Z,44.30
2019-03-11T10:42:50.432Z,44.22
2019-03-11T10:45:31.279Z,43.76
2019-03-11T10:47:56.361Z,43.59
2019-03-11T10:50:28.206Z,44.03
2019-03-11T10:53:00.004Z,44.61
2019-03-11T10:55:31.917Z,44.13
2019-03-11T10:58:04.318Z,43.66
2019-03-11T11:00:36.191Z,43.77
2019-03-11T11:03:08.126Z,41.71
2019-03-11T11:05:40.345Z,43.78
2019-03-11T11:08:12.113Z,43.62
2019-03-11T11:10:43.918Z,42.86
2019-03-11T11:13:15.726Z,42.24
2019-03-11T11:15:47.794Z,42.83
2019-03-11T11:18:19.553Z,44.31
2019-03-11T11:20:51.684Z,42.76
2019-03-11T11:23:23.898Z,43.38
2019-03-11T11:25:55.766Z,41.72
2019-03-11T11:28:27.745Z,41.67
2019-03-11T11:30:59.598Z,41.84
2019-03-11T11:33:31.747Z,42.32
2019-03-11T11:36:04.005Z,41.28
2019-03-11T11:38:35.952Z,42.14
2019-03-11T11:41:07.868Z,40.86
2019-03-11T11:43:39.772Z,40.98
2019-03-11T11:46:11.961Z,41.98
2019-03-11T11:48:43.802Z,41.70
2019-03-11T11:51:15.740Z,41.09
2019-03-11T11:53:47.576Z,40.61
2019-03-11T11:56:19.898Z,41.43
2019-03-11T11:58:51.768Z,41.12
2019-03-11T12:01:23.949Z,39.66
2019-03-11T12:03:56.043Z,39.92
2019-03-11T12:06:28.087Z,36.46
2019-03-11T12:08:59.916Z,35.44
2019-03-11T12:11:31.966Z,36.61
2019-03-11T12:14:03.768Z,35.95
2019-03-11T12:16:35.871Z,37.92
2019-03-11T12:19:07.779Z,37.65
2019-03-11T12:21:39.709Z,38.26
2019-03-11T12:24:11.687Z,39.52
2019-03-11T12:26:43.515Z,38.52
2019-03-11T12:29:15.763Z,37.57
2019-03-11T12:31:48.090Z,39.20
2019-03-11T12:34:20.908Z,39.04
2019-03-11T12:36:52.764Z,38.72
2019-03-11T12:39:24.782Z,39.68
2019-03-11T12:41:56.623Z,40.35
2019-03-11T12:44:28.488Z,41.13
2019-03-11T12:47:01.214Z,41.78
2019-03-11T12:49:33.471Z,39.31
2019-03-11T12:52:05.547Z,39.91
2019-03-11T12:54:41.790Z,40.82
2019-03-11T12:57:16.363Z,40.52
2019-03-11T12:59:48.606Z,39.00
2019-03-11T13:02:28.197Z,40.05
2019-03-11T13:05:00.342Z,41.89
2019-03-11T13:07:32.295Z,41.33
2019-03-11T13:10:04.595Z,41.69
2019-03-11T13:12:36.497Z,41.43
2019-03-11T13:15:09.507Z,38.60
2019-03-11T13:17:41.617Z,40.02
2019-03-11T13:20:18.382Z,42.33
2019-03-11T13:22:51.561Z,43.43
2019-03-11T13:25:23.526Z,44.58
2019-03-11T13:27:55.345Z,44.73
2019-03-11T13:30:27.527Z,45.21
2019-03-11T13:33:02.916Z,46.05
2019-03-11T13:35:34.795Z,45.52
2019-03-11T13:38:06.676Z,38.36
2019-03-11T13:40:38.568Z,30.41
2019-03-11T13:43:10.357Z,25.92
2019-03-11T13:45:42.189Z,24.57
2019-03-11T13:48:14.084Z,24.71
2019-03-11T13:50:45.906Z,21.33
2019-03-11T13:53:17.714Z,20.94
2019-03-11T13:55:49.625Z,20.62
2019-03-11T13:58:21.476Z,22.50
2019-03-11T14:00:57.046Z,27.14
2019-03-11T14:03:26.893Z,27.34
2019-03-11T14:05:58.750Z,26.62
2019-03-11T14:08:30.650Z,26.87
2019-03-11T14:11:02.489Z,23.76
2019-03-11T14:13:34.981Z,22.42
2019-03-11T14:16:07.122Z,22.37
2019-03-11T14:18:39.299Z,23.14
2019-03-11T14:21:11.143Z,26.08
2019-03-11T14:23:43.005Z,26.93
2019-03-11T14:26:14.815Z,29.87
2019-03-11T14:28:46.645Z,32.19
2019-03-11T14:31:18.744Z,34.26
2019-03-11T14:33:50.853Z,34.43
2019-03-11T14:36:22.721Z,35.72
2019-03-11T14:38:54.570Z,37.16
2019-03-11T14:41:26.427Z,37.74
2019-03-11T14:43:58.251Z,38.01
2019-03-11T14:46:30.665Z,38.23
2019-03-11T14:49:02.902Z,38.81
2019-03-11T14:51:34.694Z,40.07
2019-03-11T14:54:06.711Z,40.22
2019-03-11T14:56:38.564Z,40.69
2019-03-11T14:59:10.462Z,41.02
2019-03-11T15:01:42.516Z,41.97
2019-03-11T15:04:14.723Z,42.15
2019-03-11T15:06:46.493Z,42.58
2019-03-11T15:09:18.298Z,43.15
2019-03-11T15:11:50.314Z,43.72
2019-03-11T15:14:22.190Z,44.49
2019-03-11T15:16:53.976Z,44.22
2019-03-11T15:19:25.973Z,44.65
2019-03-11T15:21:57.735Z,44.65
2019-03-11T15:24:29.648Z,45.00
2019-03-11T15:27:01.626Z,45.07
2019-03-11T15:29:33.700Z,44.35
2019-03-11T15:32:05.605Z,44.18
2019-03-11T15:34:37.669Z,44.35
2019-03-11T15:37:10.603Z,44.81
2019-03-11T15:39:42.495Z,45.07
2019-03-11T15:42:14.658Z,45.63
2019-03-11T15:44:46.559Z,45.86
2019-03-11T15:47:18.410Z,46.51
2019-03-11T15:49:50.469Z,46.41
2019-03-11T15:52:23.441Z,46.87
2019-03-11T15:54:55.277Z,47.37
2019-03-11T15:57:27.204Z,49.93
2019-03-11T15:59:59.166Z,53.22
2019-03-11T16:02:31.137Z,54.42
2019-03-11T16:05:04.354Z,54.71
2019-03-11T16:07:36.356Z,55.52
2019-03-11T16:10:16.846Z,56.88
2019-03-11T16:12:43.839Z,57.58
2019-03-11T16:15:16.997Z,59.43
2019-03-11T16:17:49.226Z,60.09
2019-03-11T16:20:21.249Z,59.48
2019-03-11T16:22:53.202Z,60.95
2019-03-11T16:25:25.183Z,61.40
2019-03-11T16:27:57.056Z,61.19
2019-03-11T16:30:29.189Z,61.31
2019-03-11T16:33:01.459Z,62.35
2019-03-11T16:35:33.859Z,62.25
2019-03-11T16:38:05.769Z,62.43
2019-03-11T16:40:37.708Z,62.71
2019-03-11T16:43:09.823Z,62.57
2019-03-11T16:45:41.593Z,63.04
2019-03-11T16:48:13.526Z,63.16
2019-03-11T16:50:45.382Z,63.25
2019-03-11T16:53:17.249Z,63.56
2019-03-11T16:55:50.452Z,63.39
2019-03-11T16:58:22.336Z,64.09
2019-03-11T17:00:56.342Z,63.38
2019-03-11T17:03:28.309Z,64.31
2019-03-11T17:06:01.144Z,64.13
2019-03-11T17:08:33.089Z,64.10
2019-03-11T17:11:04.957Z,64.79
2019-03-11T17:13:36.851Z,65.31
2019-03-11T17:16:08.749Z,64.96
2019-03-11T17:18:40.618Z,66.20
2019-03-11T17:21:12.812Z,66.49
2019-03-11T17:23:44.688Z,65.90
2019-03-11T17:26:16.592Z,66.71
2019-03-11T17:28:48.689Z,66.67
2019-03-11T17:31:20.622Z,66.09
2019-03-11T17:33:52.722Z,66.15
2019-03-11T17:36:24.847Z,66.67
2019-03-11T17:38:56.718Z,66.17
2019-03-11T17:41:28.613Z,66.19
2019-03-11T17:44:00.906Z,66.20
2019-03-11T17:46:32.988Z,66.13
2019-03-11T17:49:04.776Z,65.74
2019-03-11T17:51:36.728Z,65.81
2019-03-11T17:54:08.682Z,65.58
2019-03-11T17:56:40.739Z,66.16
2019-03-11T17:59:12.895Z,65.80
2019-03-11T18:01:44.925Z,65.92
2019-03-11T18:04:16.881Z,66.19
2019-03-11T18:06:48.983Z,66.16
2019-03-11T18:09:21.286Z,66.29
2019-03-11T18:11:53.552Z,66.15
2019-03-11T18:14:25.584Z,66.77
2019-03-11T18:16:57.618Z,66.74
2019-03-11T18:19:29.579Z,66.99
2019-03-11T18:22:01.672Z,66.84
2019-03-11T18:24:33.802Z,67.47
2019-03-11T18:27:06.041Z,67.76
2019-03-11T18:29:38.365Z,67.17
2019-03-11T18:32:10.558Z,67.09
2019-03-11T18:34:43.094Z,67.71
2019-03-11T18:37:16.124Z,67.59
2019-03-11T18:39:48.229Z,67.68
2019-03-11T18:42:25.201Z,68.08
2019-03-11T18:44:53.869Z,69.15
2019-03-11T18:47:25.889Z,69.71
2019-03-11T18:49:58.072Z,69.39
2019-03-11T18:52:30.199Z,70.47
2019-03-11T18:55:02.022Z,70.03
2019-03-11T18:57:35.398Z,70.46
2019-03-11T19:00:09.859Z,70.07
2019-03-11T19:02:42.142Z,70.98
2019-03-11T19:05:14.936Z,70.69
2019-03-11T19:07:47.359Z,70.62
2019-03-11T19:10:19.438Z,70.76
2019-03-11T19:12:51.350Z,70.54
2019-03-11T19:15:23.425Z,71.59
2019-03-11T19:17:55.431Z,71.24
2019-03-11T19:20:27.492Z,71.65
2019-03-11T19:22:59.967Z,71.35
2019-03-11T19:25:31.911Z,71.91
2019-03-11T19:28:03.859Z,72.21
2019-03-11T19:30:35.765Z,72.32
2019-03-11T19:33:07.756Z,71.98
2019-03-11T19:35:40.171Z,72.97
2019-03-11T19:38:12.898Z,72.86
2019-03-11T19:40:44.934Z,72.50
2019-03-11T19:43:18.779Z,72.45
2019-03-11T19:45:50.698Z,72.04
2019-03-11T19:48:22.755Z,71.93
2019-03-11T19:50:54.779Z,72.12
2019-03-11T19:53:27.191Z,72.73
2019-03-11T19:55:59.146Z,73.31
2019-03-11T19:58:31.054Z,72.60
2019-03-11T20:01:02.900Z,72.87
2019-03-11T20:03:35.419Z,72.83
2019-03-11T20:06:07.344Z,72.58
2019-03-11T20:08:39.786Z,72.96
2019-03-11T20:11:11.763Z,72.70
2019-03-11T20:13:44.865Z,72.88
2019-03-11T20:16:16.744Z,73.63
2019-03-11T20:18:48.646Z,73.21
2019-03-11T20:21:20.611Z,73.20
2019-03-11T20:23:52.951Z,73.13
2019-03-11T20:26:24.878Z,72.84
2019-03-11T20:28:56.913Z,73.37
2019-03-11T20:31:28.983Z,73.22
2019-03-11T20:34:01.537Z,73.19
2019-03-11T20:36:34.420Z,73.21
2019-03-11T20:39:08.197Z,73.38
2019-03-11T20:41:41.889Z,73.17
2019-03-11T20:44:14.467Z,73.77
2019-03-11T20:46:46.811Z,73.77
2019-03-11T20:49:19.072Z,73.31
2019-03-11T20:51:51.462Z,73.57
2019-03-11T20:54:24.429Z,73.66
2019-03-11T20:56:56.594Z,73.34
2019-03-11T20:59:28.592Z,73.35
2019-03-11T21:02:00.621Z,73.36
2019-03-11T21:04:32.920Z,73.91
2019-03-11T21:07:05.045Z,73.62
2019-03-11T21:09:37.204Z,73.62
2019-03-11T21:12:09.789Z,73.34
2019-03-11T21:14:41.701Z,73.18
2019-03-11T21:17:25.274Z,73.37
2019-03-11T21:19:48.585Z,73.52
2019-03-11T21:22:21.170Z,73.81
2019-03-11T21:24:59.523Z,73.53
2019-03-11T21:27:27.445Z,73.75
2019-03-11T21:29:59.816Z,73.51
2019-03-11T21:32:31.817Z,73.58
2019-03-11T21:35:04.282Z,73.33
2019-03-11T21:37:37.730Z,72.99
2019-03-11T21:40:12.149Z,72.90
2019-03-11T21:42:44.028Z,72.81
2019-03-11T21:45:16.146Z,73.09
2019-03-11T21:47:50.742Z,73.28
2019-03-11T21:50:23.473Z,73.54
2019-03-11T21:52:55.561Z,73.24
2019-03-11T21:55:28.613Z,73.34
2019-03-11T21:58:12.432Z,73.44
2019-03-11T22:00:35.425Z,73.67
2019-03-11T22:03:07.640Z,73.15
2019-03-11T22:05:39.564Z,73.39
2019-03-11T22:08:11.456Z,73.40
2019-03-11T22:10:43.851Z,73.29
2019-03-11T22:13:15.728Z,73.05
2019-03-11T22:15:47.864Z,73.01
2019-03-11T22:18:20.002Z,73.70
2019-03-11T22:20:51.978Z,73.57
2019-03-11T22:23:24.254Z,73.26
2019-03-11T22:25:56.453Z,73.36
2019-03-11T22:28:28.352Z,73.58
2019-03-11T22:31:00.210Z,73.31
2019-03-11T22:33:34.750Z,73.31
2019-03-11T22:36:05.467Z,73.11
2019-03-11T22:38:37.793Z,73.26
2019-03-11T22:41:09.925Z,73.11
2019-03-11T22:43:41.969Z,73.06
2019-03-11T22:46:13.768Z,73.01
2019-03-11T22:48:45.635Z,72.98
2019-03-11T22:51:17.433Z,72.61
2019-03-11T22:53:51.515Z,72.54
2019-03-11T22:56:23.143Z,72.68
2019-03-11T22:58:54.988Z,72.63
2019-03-11T23:01:28.156Z,72.61
2019-03-11T23:04:00.047Z,72.34
2019-03-11T23:06:31.866Z,72.48
2019-03-11T23:09:04.268Z,72.46
2019-03-11T23:11:37.698Z,72.49
2019-03-11T23:14:09.534Z,72.42
2019-03-11T23:16:41.390Z,72.41
2019-03-11T23:19:13.376Z,72.70
2019-03-11T23:21:45.198Z,72.62
2019-03-11T23:24:17.121Z,72.73
2019-03-11T23:26:49.382Z,72.86
2019-03-11T23:29:21.246Z,72.59
2019-03-11T23:31:53.136Z,72.69
2019-03-11T23:34:25.025Z,72.67
2019-03-11T23:36:56.836Z,72.67
2019-03-11T23:39:28.875Z,72.43
2019-03-11T23:42:00.666Z,72.27
2019-03-11T23:44:32.497Z,72.68
2019-03-11T23:47:04.312Z,72.86
2019-03-11T23:49:36.171Z,73.24
2019-03-11T23:52:08.054Z,72.78
2019-03-11T23:54:39.871Z,72.68
2019-03-11T23:57:11.707Z,72.62
2019-03-11T23:59:43.582Z,72.51
